Time;durP1;ratioP1;P1;durP2;ratioP2;P2;SDS_P1;SDS_P2;PMS_P1;PMS_P2;Temp;Humidity;BMP_temperature;BMP_pressure;BME280_temperature;BME280_humidity;BME280_pressure;Samples;Min_cycle;Max_cycle;Signal;HPM_P1;HPM_P2
2024/03/25 00:00:24;;;;;;;;;11.75;11.75;;;;;;;;5032962;28;8857;-72
2024/03/25 00:02:50;;;;;;;;;14.50;11.25;;;;;;;;5034217;28;8804;-72
2024/03/25 00:05:21;;;;;;;;;12.25;12.25;;;;;;;;5034169;28;11537;-72
2024/03/25 00:07:47;;;;;;;;;11.75;11.50;;;;;;;;5034264;28;8768;-72
2024/03/25 00:10:12;;;;;;;;;12.00;9.00;;;;;;;;5033803;28;11538;-72
2024/03/25 00:12:37;;;;;;;;;12.00;11.00;;;;;;;;5033887;28;8819;-72
2024/03/25 00:15:03;;;;;;;;;11.50;11.50;;;;;;;;5034002;28;8787;-71
2024/03/25 00:17:29;;;;;;;;;10.00;9.00;;;;;;;;5033119;28;8829;-72
2024/03/25 00:19:54;;;;;;;;;12.50;11.00;;;;;;;;5034012;28;8780;-72
2024/03/25 00:22:21;;;;;;;;;13.75;12.50;;;;;;;;5033859;28;8892;-72
2024/03/25 00:24:47;;;;;;;;;10.00;8.75;;;;;;;;5033790;28;8821;-72
2024/03/25 00:27:13;;;;;;;;;10.75;8.50;;;;;;;;5033806;28;11564;-72
2024/03/25 00:29:38;;;;;;;;;11.25;10.75;;;;;;;;5033834;28;8892;-72
2024/03/25 00:32:03;;;;;;;;;9.00;9.00;;;;;;;;5033497;28;8835;-72
2024/03/25 00:34:29;;;;;;;;;14.00;9.50;;;;;;;;5032180;28;8819;-72
2024/03/25 00:36:54;;;;;;;;;9.00;9.00;;;;;;;;5033629;28;8826;-72
2024/03/25 00:39:19;;;;;;;;;11.75;10.00;;;;;;;;5032193;28;8823;-72
2024/03/25 00:41:44;;;;;;;;;11.25;11.25;;;;;;;;5033552;28;8795;-72
2024/03/25 00:44:10;;;;;;;;;8.25;5.00;;;;;;;;5032219;28;8819;-72
2024/03/25 00:46:35;;;;;;;;;11.50;8.00;;;;;;;;5033485;28;8796;-72
2024/03/25 00:49:01;;;;;;;;;10.00;9.00;;;;;;;;5033383;28;8815;-72
2024/03/25 00:51:26;;;;;;;;;13.50;10.50;;;;;;;;5033257;28;8841;-72
2024/03/25 00:53:51;;;;;;;;;14.75;12.50;;;;;;;;5033250;28;8807;-72
2024/03/25 00:56:16;;;;;;;;;10.00;9.50;;;;;;;;5033272;28;8796;-72
2024/03/25 00:58:46;;;;;;;;;8.25;8.25;;;;;;;;5033441;28;8791;-71
2024/03/25 01:01:11;;;;;;;;;8.25;8.00;;;;;;;;5033432;28;8783;-71
2024/03/25 01:03:37;;;;;;;;;7.50;7.50;;;;;;;;5032862;28;11548;-71
2024/03/25 01:06:02;;;;;;;;;9.00;7.75;;;;;;;;5032793;28;8799;-71
2024/03/25 01:08:27;;;;;;;;;9.00;7.50;;;;;;;;5031835;28;8834;-71
2024/03/25 01:10:52;;;;;;;;;8.25;8.00;;;;;;;;5033291;28;8776;-71
2024/03/25 01:13:18;;;;;;;;;8.00;8.00;;;;;;;;5032854;28;8824;-71
2024/03/25 01:15:43;;;;;;;;;27.33;23.33;;;;;;;;5032920;28;8804;-71
2024/03/25 01:18:08;;;;;;;;;17.33;15.00;;;;;;;;5033385;28;8803;-71
2024/03/25 01:20:34;;;;;;;;;11.50;10.00;;;;;;;;5031344;28;8934;-71
2024/03/25 01:22:59;;;;;;;;;11.00;9.00;;;;;;;;5031364;28;8930;-71
2024/03/25 01:25:25;;;;;;;;;13.25;7.50;;;;;;;;5032464;28;8795;-71
2024/03/25 01:27:50;;;;;;;;;8.75;8.75;;;;;;;;5032682;28;9565;-71
2024/03/25 01:30:18;;;;;;;;;7.50;4.50;;;;;;;;5032568;28;8804;-71
2024/03/25 01:32:44;;;;;;;;;6.25;4.75;;;;;;;;5032270;28;11538;-71
2024/03/25 01:35:09;;;;;;;;;7.50;7.50;;;;;;;;5032434;28;11482;-71
2024/03/25 01:37:35;;;;;;;;;7.00;2.00;;;;;;;;5032365;28;8792;-71
2024/03/25 01:40:00;;;;;;;;;6.50;6.00;;;;;;;;5031067;28;8823;-71
2024/03/25 01:42:26;;;;;;;;;8.00;7.00;;;;;;;;5032564;28;8819;-71
2024/03/25 01:44:52;;;;;;;;;8.25;7.00;;;;;;;;5032370;28;8816;-71
2024/03/25 01:47:17;;;;;;;;;9.00;6.33;;;;;;;;5032158;28;11556;-71
2024/03/25 01:49:42;;;;;;;;;7.00;7.00;;;;;;;;5032237;28;8811;-71
2024/03/25 01:52:07;;;;;;;;;9.75;7.00;;;;;;;;5031930;28;8820;-71
2024/03/25 01:54:33;;;;;;;;;9.50;8.00;;;;;;;;5032063;28;8819;-71
2024/03/25 01:56:58;;;;;;;;;5.00;5.00;;;;;;;;5047444;28;8978;-71
2024/03/25 01:59:25;;;;;;;;;8.00;7.00;;;;;;;;5051909;28;8809;-71
2024/03/25 02:01:50;;;;;;;;;7.00;7.00;;;;;;;;5050497;28;8812;-71
2024/03/25 02:04:16;;;;;;;;;8.00;7.75;;;;;;;;5051765;28;11456;-71
2024/03/25 02:06:41;;;;;;;;;9.50;5.00;;;;;;;;5051666;28;8894;-71
2024/03/25 02:09:07;;;;;;;;;7.00;7.00;;;;;;;;5050393;28;8805;-71
2024/03/25 02:11:33;;;;;;;;;5.00;5.00;;;;;;;;5051675;28;8797;-71
2024/03/25 02:13:58;;;;;;;;;7.00;5.00;;;;;;;;5051586;28;11599;-71
2024/03/25 02:16:23;;;;;;;;;7.00;5.00;;;;;;;;5050801;28;8805;-71
2024/03/25 02:18:50;;;;;;;;;7.00;5.67;;;;;;;;5051516;28;8804;-71
2024/03/25 02:21:15;;;;;;;;;6.00;4.75;;;;;;;;5051732;28;8880;-71
2024/03/25 02:23:42;;;;;;;;;4.25;4.25;;;;;;;;5051427;28;11448;-71
2024/03/25 02:26:07;;;;;;;;;9.50;7.50;;;;;;;;5043082;28;8784;-72
2024/03/25 02:28:33;;;;;;;;;6.00;4.00;;;;;;;;5031346;28;11473;-72
2024/03/25 02:30:58;;;;;;;;;2.00;1.00;;;;;;;;5031304;28;8811;-72
2024/03/25 02:33:23;;;;;;;;;7.00;4.25;;;;;;;;5031384;28;8819;-72
2024/03/25 02:35:48;;;;;;;;;10.00;5.67;;;;;;;;5031124;28;8783;-71
2024/03/25 02:38:17;;;;;;;;;7.00;4.00;;;;;;;;5029725;28;8808;-71
2024/03/25 02:40:42;;;;;;;;;5.00;4.00;;;;;;;;5030925;28;8784;-72
2024/03/25 02:43:10;;;;;;;;;7.00;4.00;;;;;;;;5031204;28;11560;-73
2024/03/25 02:45:35;;;;;;;;;5.67;5.67;;;;;;;;5031213;28;8768;-74
2024/03/25 02:48:00;;;;;;;;;5.00;5.00;;;;;;;;5031151;28;11480;-69
2024/03/25 02:50:25;;;;;;;;;5.67;5.67;;;;;;;;5031195;28;8787;-70
2024/03/25 02:52:51;;;;;;;;;3.33;3.33;;;;;;;;5031150;28;8804;-70
2024/03/25 02:55:16;;;;;;;;;3.33;3.33;;;;;;;;5030105;28;8803;-69
2024/03/25 02:57:41;;;;;;;;;4.00;4.00;;;;;;;;5031211;28;8843;-69
2024/03/25 03:00:08;;;;;;;;;4.00;4.00;;;;;;;;5030946;28;9518;-69
2024/03/25 03:02:34;;;;;;;;;4.00;4.00;;;;;;;;5030842;28;8812;-70
2024/03/25 03:04:59;;;;;;;;;3.33;2.00;;;;;;;;5029590;28;11493;-69
2024/03/25 03:07:24;;;;;;;;;4.00;4.00;;;;;;;;5031080;28;8792;-69
2024/03/25 03:09:49;;;;;;;;;2.00;2.00;;;;;;;;5031073;28;8780;-70
2024/03/25 03:12:15;;;;;;;;;7.00;4.00;;;;;;;;5030827;28;9668;-69
2024/03/25 03:14:40;;;;;;;;;6.00;4.00;;;;;;;;5030766;28;8772;-69
2024/03/25 03:17:09;;;;;;;;;7.00;5.00;;;;;;;;5031207;28;8826;-69
2024/03/25 03:19:34;;;;;;;;;5.67;4.00;;;;;;;;5030648;28;8792;-70
2024/03/25 03:21:59;;;;;;;;;3.33;3.33;;;;;;;;5030930;28;8934;-69
2024/03/25 03:24:24;;;;;;;;;4.00;4.00;;;;;;;;5030783;28;8814;-69
2024/03/25 03:26:50;;;;;;;;;4.33;2.00;;;;;;;;5030456;28;8906;-69
2024/03/25 03:29:15;;;;;;;;;4.00;2.00;;;;;;;;5030611;28;8776;-69
2024/03/25 03:31:40;;;;;;;;;3.33;3.33;;;;;;;;5030230;28;9010;-69
2024/03/25 03:34:06;;;;;;;;;4.00;4.00;;;;;;;;5030434;28;8800;-69
2024/03/25 03:36:31;;;;;;;;;6.67;4.00;;;;;;;;5030584;28;8804;-69
2024/03/25 03:38:56;;;;;;;;;4.00;4.00;;;;;;;;5030615;28;8833;-69
2024/03/25 03:41:22;;;;;;;;;7.00;5.00;;;;;;;;5030532;28;8895;-69
2024/03/25 03:43:47;;;;;;;;;5.00;5.00;;;;;;;;5030540;28;8792;-69
2024/03/25 03:46:12;;;;;;;;;4.00;4.00;;;;;;;;5030651;28;8792;-69
2024/03/25 03:48:38;;;;;;;;;2.67;2.67;;;;;;;;5030261;28;8832;-69
2024/03/25 03:51:03;;;;;;;;;9.33;5.00;;;;;;;;5030376;28;8802;-70
2024/03/25 03:53:29;;;;;;;;;4.33;4.33;;;;;;;;5030617;28;8812;-70
2024/03/25 03:55:54;;;;;;;;;5.00;4.33;;;;;;;;5030278;28;8788;-70
2024/03/25 03:58:19;;;;;;;;;5.00;4.00;;;;;;;;5030438;28;8792;-69
2024/03/25 04:00:45;;;;;;;;;2.00;2.00;;;;;;;;5030571;28;8865;-70
2024/03/25 04:03:10;;;;;;;;;6.33;2.00;;;;;;;;5030361;28;8826;-70
2024/03/25 04:05:35;;;;;;;;;5.00;4.00;;;;;;;;5030090;28;9529;-70
2024/03/25 04:08:00;;;;;;;;;4.67;2.00;;;;;;;;5030266;28;8869;-70
2024/03/25 04:10:26;;;;;;;;;4.67;4.00;;;;;;;;5030241;28;8799;-70
2024/03/25 04:12:52;;;;;;;;;7.00;4.00;;;;;;;;5030169;28;8867;-70
2024/03/25 04:15:17;;;;;;;;;5.00;4.00;;;;;;;;5030364;28;8788;-70
2024/03/25 04:17:44;;;;;;;;;7.33;5.00;;;;;;;;5030668;28;8795;-70
2024/03/25 04:20:10;;;;;;;;;8.00;5.00;;;;;;;;5030095;28;9502;-70
2024/03/25 04:22:35;;;;;;;;;7.00;7.00;;;;;;;;5030161;28;8827;-70
2024/03/25 04:25:01;;;;;;;;;7.00;7.00;;;;;;;;5030011;28;9553;-70
2024/03/25 04:27:26;;;;;;;;;12.67;9.33;;;;;;;;5030170;28;8792;-69
2024/03/25 04:29:51;;;;;;;;;8.00;8.00;;;;;;;;5030272;28;8816;-69
2024/03/25 04:32:17;;;;;;;;;8.67;8.00;;;;;;;;5029948;28;8836;-69
2024/03/25 04:34:42;;;;;;;;;8.00;8.00;;;;;;;;5029820;28;8795;-69
2024/03/25 04:37:09;;;;;;;;;7.33;4.00;;;;;;;;5029964;28;8837;-69
2024/03/25 04:39:35;;;;;;;;;8.00;4.67;;;;;;;;5029962;28;8822;-69
2024/03/25 04:42:00;;;;;;;;;4.00;4.00;;;;;;;;5033854;28;8796;-69
2024/03/25 04:44:25;;;;;;;;;6.33;4.33;;;;;;;;5033438;28;8804;-69
2024/03/25 04:46:50;;;;;;;;;6.33;5.67;;;;;;;;5033496;28;8779;-69
2024/03/25 04:49:16;;;;;;;;;7.33;4.67;;;;;;;;5033364;28;9522;-69
2024/03/25 04:51:41;;;;;;;;;7.00;6.00;;;;;;;;5033450;28;8970;-70
2024/03/25 04:54:07;;;;;;;;;7.67;7.00;;;;;;;;5031938;28;8806;-69
2024/03/25 04:56:32;;;;;;;;;10.00;6.67;;;;;;;;5033515;28;8812;-70
2024/03/25 04:59:01;;;;;;;;;9.00;7.00;;;;;;;;5033229;28;8772;-70
2024/03/25 05:01:27;;;;;;;;;9.00;9.00;;;;;;;;5033144;28;8788;-69
2024/03/25 05:03:52;;;;;;;;;10.67;9.00;;;;;;;;5032804;28;8800;-69
2024/03/25 05:06:17;;;;;;;;;7.00;7.00;;;;;;;;5032970;28;8899;-69
2024/03/25 05:08:42;;;;;;;;;9.00;9.00;;;;;;;;5033053;28;8798;-69
2024/03/25 05:11:08;;;;;;;;;7.00;7.00;;;;;;;;5048329;28;8812;-69
2024/03/25 05:13:33;;;;;;;;;7.67;6.00;;;;;;;;5032979;28;8820;-69
2024/03/25 05:15:58;;;;;;;;;9.33;9.33;;;;;;;;5032968;28;8810;-69
2024/03/25 05:18:23;;;;;;;;;15.00;11.00;;;;;;;;5046028;22;8887;-69
2024/03/25 05:20:49;;;;;;;;;9.00;7.00;;;;;;;;5032411;28;9563;-69
2024/03/25 05:23:14;;;;;;;;;8.33;7.00;;;;;;;;5032515;28;8815;-69
2024/03/25 05:25:40;;;;;;;;;14.00;8.33;;;;;;;;5036860;28;8882;-68
2024/03/25 05:28:06;;;;;;;;;7.00;7.00;;;;;;;;5052326;28;8890;-67
2024/03/25 05:30:31;;;;;;;;;7.00;6.33;;;;;;;;5052276;28;8805;-68
2024/03/25 05:32:56;;;;;;;;;6.67;5.67;;;;;;;;5052061;28;8837;-66
2024/03/25 05:35:21;;;;;;;;;8.00;6.00;;;;;;;;5052100;28;8938;-68
2024/03/25 05:37:47;;;;;;;;;9.67;7.67;;;;;;;;5050976;28;8812;-67
2024/03/25 05:40:12;;;;;;;;;9.33;7.00;;;;;;;;5052305;28;8847;-69
2024/03/25 05:42:37;;;;;;;;;9.00;9.00;;;;;;;;5050727;28;8817;-73
2024/03/25 05:45:03;;;;;;;;;10.33;9.67;;;;;;;;5051880;28;8906;-71
2024/03/25 05:47:28;;;;;;;;;13.33;10.33;;;;;;;;5050560;28;8793;-72
2024/03/25 05:49:53;;;;;;;;;10.67;10.00;;;;;;;;5051846;28;8898;-71
2024/03/25 05:52:19;;;;;;;;;11.00;9.00;;;;;;;;5051787;28;8909;-72
2024/03/25 05:54:44;;;;;;;;;9.00;9.00;;;;;;;;5052012;28;8866;-67
2024/03/25 05:57:09;;;;;;;;;24.67;23.67;;;;;;;;5051833;28;8781;-66
2024/03/25 05:59:34;;;;;;;;;17.33;12.33;;;;;;;;5051816;28;8781;-71
2024/03/25 06:01:59;;;;;;;;;10.00;8.33;;;;;;;;5050441;28;8917;-68
2024/03/25 06:04:25;;;;;;;;;12.33;9.00;;;;;;;;5051583;28;8809;-73
2024/03/25 06:06:50;;;;;;;;;9.33;9.33;;;;;;;;5051475;28;9448;-68
2024/03/25 06:09:15;;;;;;;;;10.00;9.67;;;;;;;;5051627;28;8781;-76
2024/03/25 06:11:41;;;;;;;;;7.67;6.00;;;;;;;;5051610;28;8789;-67
2024/03/25 06:14:06;;;;;;;;;6.67;5.33;;;;;;;;5036927;28;8828;-69
2024/03/25 06:16:31;;;;;;;;;10.00;10.00;;;;;;;;5030690;28;8820;-68
2024/03/25 06:18:56;;;;;;;;;12.33;10.67;;;;;;;;5045520;28;8943;-67
2024/03/25 06:21:23;;;;;;;;;11.00;11.00;;;;;;;;5030868;28;9832;-72
2024/03/25 06:23:48;;;;;;;;;6.67;6.67;;;;;;;;5029514;28;8926;-70
2024/03/25 06:26:13;;;;;;;;;14.00;10.33;;;;;;;;5036230;28;8907;-67
2024/03/25 06:28:39;;;;;;;;;9.67;9.67;;;;;;;;5028590;28;8843;-69
2024/03/25 06:36:32;;;;;;;;;10.33;8.33;;;;;;;;5031212;28;8771;-69
2024/03/25 06:38:57;;;;;;;;;13.00;11.00;;;;;;;;5030759;28;8901;-68
2024/03/25 06:41:22;;;;;;;;;10.00;10.00;;;;;;;;5029451;28;8826;-68
2024/03/25 06:43:48;;;;;;;;;11.67;10.33;;;;;;;;5030740;28;8807;-69
2024/03/25 06:46:13;;;;;;;;;10.67;10.00;;;;;;;;5030645;28;8831;-72
2024/03/25 06:48:38;;;;;;;;;10.67;10.67;;;;;;;;5030347;28;8994;-75
2024/03/25 06:51:03;;;;;;;;;9.00;9.00;;;;;;;;5030466;28;8804;-72
2024/03/25 06:53:29;;;;;;;;;10.33;10.33;;;;;;;;5029940;28;8840;-70
2024/03/25 06:55:58;;;;;;;;;14.67;14.00;;;;;;;;5030399;28;8811;-70
2024/03/25 06:58:24;;;;;;;;;13.00;10.67;;;;;;;;5028849;28;8811;-69
2024/03/25 07:00:50;;;;;;;;;11.00;9.67;;;;;;;;5028381;28;8784;-70
2024/03/25 07:03:18;;;;;;;;;15.00;13.00;;;;;;;;5029729;28;9015;-68
2024/03/25 07:05:46;;;;;;;;;10.33;10.33;;;;;;;;5030148;28;8826;-70
2024/03/25 07:08:12;;;;;;;;;11.00;11.00;;;;;;;;5030174;28;8804;-69
2024/03/25 07:10:37;;;;;;;;;17.00;13.33;;;;;;;;5030003;28;8780;-70
2024/03/25 07:13:03;;;;;;;;;13.67;11.00;;;;;;;;5029913;28;8862;-68
2024/03/25 07:15:28;;;;;;;;;15.00;12.33;;;;;;;;5030064;28;9479;-68
2024/03/25 07:17:53;;;;;;;;;12.33;11.00;;;;;;;;5030002;28;8792;-68
2024/03/25 07:20:19;;;;;;;;;10.00;10.00;;;;;;;;5030506;28;8800;-69
2024/03/25 07:22:44;;;;;;;;;14.00;11.00;;;;;;;;5030345;28;8803;-69
2024/03/25 07:25:09;;;;;;;;;15.33;14.33;;;;;;;;5030562;28;8810;-70
2024/03/25 07:27:35;;;;;;;;;17.33;14.00;;;;;;;;5049133;28;8781;-69
2024/03/25 07:30:00;;;;;;;;;11.00;11.00;;;;;;;;5035117;28;8808;-72
2024/03/25 07:32:25;;;;;;;;;16.67;13.33;;;;;;;;5027931;28;8824;-71
2024/03/25 07:34:50;;;;;;;;;18.33;14.00;;;;;;;;5025933;28;8824;-71
2024/03/25 07:37:17;;;;;;;;;15.00;15.00;;;;;;;;5030393;28;8834;-72
2024/03/25 07:39:42;;;;;;;;;14.33;12.00;;;;;;;;5029767;28;8947;-68
2024/03/25 07:42:07;;;;;;;;;14.67;12.00;;;;;;;;5028098;28;8831;-69
2024/03/25 07:44:32;;;;;;;;;14.33;14.33;;;;;;;;5028423;28;8815;-67
2024/03/25 07:46:58;;;;;;;;;6.33;5.67;;;;;;;;5029431;28;8796;-66
2024/03/25 07:49:23;;;;;;;;;11.00;9.67;;;;;;;;5028283;28;8808;-67
2024/03/25 07:51:48;;;;;;;;;17.33;17.33;;;;;;;;5029574;28;9629;-67
2024/03/25 07:54:16;;;;;;;;;19.00;19.00;;;;;;;;5028352;28;8807;-68
2024/03/25 07:56:41;;;;;;;;;18.33;16.00;;;;;;;;5042109;28;9515;-68
2024/03/25 07:59:07;;;;;;;;;15.67;14.00;;;;;;;;5049380;28;11620;-69
2024/03/25 08:01:32;;;;;;;;;16.00;12.67;;;;;;;;5038539;28;8799;-67
2024/03/25 08:03:57;;;;;;;;;12.67;12.67;;;;;;;;5024805;28;8825;-68
2024/03/25 08:06:22;;;;;;;;;13.00;12.67;;;;;;;;5009976;28;8795;-68
2024/03/25 08:08:47;;;;;;;;;16.00;14.67;;;;;;;;5008181;28;8799;-68
2024/03/25 08:11:13;;;;;;;;;11.00;11.00;;;;;;;;5019607;28;8942;-68
2024/03/25 08:13:38;;;;;;;;;16.33;15.67;;;;;;;;5029254;28;8916;-68
2024/03/25 08:16:03;;;;;;;;;16.00;13.00;;;;;;;;5032949;28;8868;-68
2024/03/25 08:18:29;;;;;;;;;13.00;13.00;;;;;;;;5033009;28;9619;-68
2024/03/25 08:20:54;;;;;;;;;14.75;13.00;;;;;;;;5033365;28;8930;-68
2024/03/25 08:23:19;;;;;;;;;17.50;14.25;;;;;;;;5032786;28;8791;-68
2024/03/25 08:25:44;;;;;;;;;16.75;16.75;;;;;;;;5036703;28;8809;-68
2024/03/25 08:28:09;;;;;;;;;17.50;16.00;;;;;;;;5051542;28;8808;-72
2024/03/25 08:30:36;;;;;;;;;16.75;16.25;;;;;;;;5052347;28;8790;-68
2024/03/25 08:33:01;;;;;;;;;14.50;12.25;;;;;;;;5052858;28;9046;-68
2024/03/25 08:35:26;;;;;;;;;15.00;13.00;;;;;;;;5052825;28;12184;-72
2024/03/25 08:37:52;;;;;;;;;18.00;15.25;;;;;;;;5052792;28;8813;-68
2024/03/25 08:40:17;;;;;;;;;16.00;13.75;;;;;;;;5052726;28;8835;-68
2024/03/25 08:42:42;;;;;;;;;13.25;12.00;;;;;;;;5052624;28;8843;-68
2024/03/25 08:45:07;;;;;;;;;17.75;14.50;;;;;;;;5052854;28;8812;-68
2024/03/25 08:47:33;;;;;;;;;14.25;14.00;;;;;;;;5052587;28;8906;-69
2024/03/25 08:49:58;;;;;;;;;16.00;14.50;;;;;;;;5037788;28;8788;-69
2024/03/25 08:52:23;;;;;;;;;17.25;14.25;;;;;;;;5032216;28;8828;-72
2024/03/25 08:54:48;;;;;;;;;14.00;13.25;;;;;;;;5032374;28;8820;-69
2024/03/25 08:57:13;;;;;;;;;16.00;13.25;;;;;;;;5049863;28;8801;-70
2024/03/25 08:59:39;;;;;;;;;15.50;12.50;;;;;;;;5052306;28;8955;-70
2024/03/25 09:02:04;;;;;;;;;15.00;13.25;;;;;;;;5052380;28;8805;-67
2024/03/25 09:04:29;;;;;;;;;13.25;13.25;;;;;;;;5046240;28;8817;-68
2024/03/25 09:06:54;;;;;;;;;16.00;13.75;;;;;;;;5052454;28;8781;-70
2024/03/25 09:12:03;;;;;;;;;15.00;14.25;;;;;;;;5052114;28;8816;-68
2024/03/25 09:14:29;;;;;;;;;15.25;13.50;;;;;;;;5051989;28;9838;-70
2024/03/25 09:16:54;;;;;;;;;10.75;10.25;;;;;;;;5052045;28;8904;-69
2024/03/25 09:19:19;;;;;;;;;14.75;14.75;;;;;;;;5051642;28;8793;-68
2024/03/25 09:21:44;;;;;;;;;9.67;9.67;;;;;;;;5051776;28;8789;-72
2024/03/25 09:24:10;;;;;;;;;15.00;14.00;;;;;;;;5051612;28;8797;-72
2024/03/25 09:26:35;;;;;;;;;11.33;9.67;;;;;;;;5051391;28;8777;-71
2024/03/25 09:29:00;;;;;;;;;14.67;14.00;;;;;;;;5051507;28;8801;-71
2024/03/25 09:31:25;;;;;;;;;13.00;11.00;;;;;;;;5051848;28;8801;-70
2024/03/25 09:33:51;;;;;;;;;14.00;12.00;;;;;;;;5051406;28;8975;-70
2024/03/25 09:36:16;;;;;;;;;11.00;11.00;;;;;;;;5051637;28;8792;-70
2024/03/25 09:38:41;;;;;;;;;13.67;12.00;;;;;;;;5051173;28;8789;-70
2024/03/25 09:41:08;;;;;;;;;12.33;12.00;;;;;;;;5051340;28;8803;-70
2024/03/25 09:43:42;;;;;;;;;14.25;12.50;;;;;;;;5051553;28;8785;-71
2024/03/25 09:46:08;;;;;;;;;13.00;13.00;;;;;;;;5051514;28;8888;-71
2024/03/25 09:48:34;;;;;;;;;11.00;11.00;;;;;;;;5051556;28;8793;-70
2024/03/25 09:50:59;;;;;;;;;12.50;11.50;;;;;;;;5051186;28;8805;-70
2024/03/25 09:53:24;;;;;;;;;11.33;9.67;;;;;;;;5051085;28;8855;-71
2024/03/25 09:55:50;;;;;;;;;9.33;9.00;;;;;;;;5050959;28;8773;-70
2024/03/25 09:58:17;;;;;;;;;11.00;10.00;;;;;;;;5051224;28;9610;-70
2024/03/25 10:00:42;;;;;;;;;8.00;8.00;;;;;;;;5051095;28;8789;-70
2024/03/25 10:03:08;;;;;;;;;8.33;7.33;;;;;;;;5051202;28;8828;-71
2024/03/25 10:05:34;;;;;;;;;9.00;9.00;;;;;;;;5051201;28;8801;-70
2024/03/25 10:07:59;;;;;;;;;8.00;8.00;;;;;;;;5049495;28;8825;-70
2024/03/25 10:10:25;;;;;;;;;9.67;9.67;;;;;;;;5050685;28;8773;-70
2024/03/25 10:12:50;;;;;;;;;9.00;8.33;;;;;;;;5050961;28;8970;-70
2024/03/25 10:15:16;;;;;;;;;9.00;7.00;;;;;;;;5050864;28;8847;-70
2024/03/25 10:17:42;;;;;;;;;7.00;7.00;;;;;;;;5050878;28;8817;-70
2024/03/25 10:20:09;;;;;;;;;7.00;7.00;;;;;;;;5049247;28;8805;-70
2024/03/25 10:22:44;;;;;;;;;6.50;6.50;;;;;;;;5050617;28;9526;-70
2024/03/25 10:25:28;;;;;;;;;6.50;6.50;;;;;;;;5050423;28;8816;-70
2024/03/25 10:28:00;;;;;;;;;7.00;7.00;;;;;;;;5050471;28;8903;-70
2024/03/25 10:30:26;;;;;;;;;27.50;26.00;;;;;;;;5050300;28;9554;-69
2024/03/25 10:33:01;;;;;;;;;9.67;8.00;;;;;;;;5050272;28;8833;-70
2024/03/25 10:35:27;;;;;;;;;6.50;6.00;;;;;;;;5050491;28;8903;-70
2024/03/25 10:37:56;;;;;;;;;38.67;29.67;;;;;;;;5048194;28;8936;-70
2024/03/25 10:40:22;;;;;;;;;7.50;6.50;;;;;;;;5049771;28;11324;-70
2024/03/25 10:42:48;;;;;;;;;15.00;14.00;;;;;;;;5050216;28;8883;-71
2024/03/25 10:45:13;;;;;;;;;7.00;7.00;;;;;;;;5048938;28;8781;-70
2024/03/25 10:47:38;;;;;;;;;9.33;7.00;;;;;;;;5050060;28;8789;-71
2024/03/25 10:50:09;;;;;;;;;10.33;10.33;;;;;;;;5049758;28;8785;-71
2024/03/25 10:52:35;;;;;;;;;12.00;10.00;;;;;;;;5048718;28;8874;-71
2024/03/25 10:55:02;;;;;;;;;21.00;20.00;;;;;;;;5049891;28;8840;-71
2024/03/25 10:57:28;;;;;;;;;7.50;6.50;;;;;;;;5050005;28;8979;-69
2024/03/25 10:59:55;;;;;;;;;8.25;6.25;;;;;;;;5049814;28;8808;-71
2024/03/25 11:02:21;;;;;;;;;7.00;7.00;;;;;;;;4965255;28;11373;-70
2024/03/25 11:04:47;;;;;;;;;7.00;7.00;;;;;;;;4962498;28;11998;-70
2024/03/25 11:07:13;;;;;;;;;6.50;6.50;;;;;;;;5030858;28;8800;-72
2024/03/25 11:09:39;;;;;;;;;6.67;6.67;;;;;;;;5029565;28;8792;-72
2024/03/25 11:12:04;;;;;;;;;6.00;6.00;;;;;;;;5029372;28;8960;-71
2024/03/25 11:14:31;;;;;;;;;8.00;7.00;;;;;;;;5029679;28;8780;-71
2024/03/25 11:16:57;;;;;;;;;7.25;6.50;;;;;;;;5029749;28;8803;-71
2024/03/25 11:19:25;;;;;;;;;8.33;6.00;;;;;;;;5029569;28;8831;-70
2024/03/25 11:21:51;;;;;;;;;7.33;6.33;;;;;;;;5029167;28;11476;-70
2024/03/25 11:24:26;;;;;;;;;9.00;7.00;;;;;;;;5029381;28;9136;-71
2024/03/25 11:26:52;;;;;;;;;25.50;23.00;;;;;;;;5043799;28;9551;-71
2024/03/25 11:29:18;;;;;;;;;13.75;12.00;;;;;;;;5049307;28;9973;-70
2024/03/25 11:31:44;;;;;;;;;8.67;7.67;;;;;;;;5049081;28;9568;-70
2024/03/25 11:34:10;;;;;;;;;7.67;7.67;;;;;;;;5048068;28;8915;-70
2024/03/25 11:36:35;;;;;;;;;7.00;7.00;;;;;;;;5048327;28;9337;-69
2024/03/25 11:39:04;;;;;;;;;7.33;7.33;;;;;;;;5048087;28;8906;-69
2024/03/25 11:41:31;;;;;;;;;7.33;6.00;;;;;;;;5049443;28;8797;-72
2024/03/25 11:43:56;;;;;;;;;4.67;4.67;;;;;;;;5048875;28;9393;-72
2024/03/25 11:46:24;;;;;;;;;6.00;5.00;;;;;;;;5048154;28;9266;-70
2024/03/25 11:48:50;;;;;;;;;7.25;7.25;;;;;;;;5051348;28;8781;-69
2024/03/25 11:51:19;;;;;;;;;5.00;5.00;;;;;;;;5053366;28;9478;-71
2024/03/25 11:53:44;;;;;;;;;11.25;10.25;;;;;;;;5053473;28;8821;-71
2024/03/25 11:56:11;;;;;;;;;6.67;5.33;;;;;;;;5053724;28;9664;-71
2024/03/25 11:58:36;;;;;;;;;7.00;7.00;;;;;;;;5053379;28;8785;-74
2024/03/25 12:01:01;;;;;;;;;6.00;4.33;;;;;;;;5053184;28;9386;-71
2024/03/25 12:03:27;;;;;;;;;7.50;6.25;;;;;;;;5039668;28;8925;-71
2024/03/25 12:05:52;;;;;;;;;6.50;5.25;;;;;;;;5032996;28;8917;-71
2024/03/25 12:08:17;;;;;;;;;5.25;4.25;;;;;;;;5032746;28;8922;-72
2024/03/25 12:13:27;;;;;;;;;8.00;4.50;;;;;;;;5030947;28;8804;-70
2024/03/25 12:15:53;;;;;;;;;8.25;6.00;;;;;;;;5032598;28;9537;-70
2024/03/25 12:18:21;;;;;;;;;7.50;5.00;;;;;;;;5032426;28;9267;-69
2024/03/25 12:20:46;;;;;;;;;6.25;5.75;;;;;;;;5032513;28;8825;-69
2024/03/25 12:23:12;;;;;;;;;6.00;6.00;;;;;;;;5032363;28;9381;-70
2024/03/25 12:25:37;;;;;;;;;8.75;5.75;;;;;;;;5035403;28;9554;-70
2024/03/25 12:28:07;;;;;;;;;7.75;5.00;;;;;;;;5052814;28;8801;-69
2024/03/25 12:30:33;;;;;;;;;6.75;6.00;;;;;;;;5052840;28;8819;-69
2024/03/25 12:32:58;;;;;;;;;5.25;5.25;;;;;;;;5052200;28;9659;-69
2024/03/25 12:35:23;;;;;;;;;6.00;5.25;;;;;;;;5051505;28;9515;-69
2024/03/25 12:37:49;;;;;;;;;5.25;3.75;;;;;;;;5051189;28;9539;-69
2024/03/25 12:40:27;;;;;;;;;8.25;4.50;;;;;;;;5052480;28;9621;-69
2024/03/25 12:42:53;;;;;;;;;5.00;5.00;;;;;;;;5050904;28;9715;-69
2024/03/25 12:45:19;;;;;;;;;6.75;6.75;;;;;;;;5052513;28;9423;-72
2024/03/25 12:47:44;;;;;;;;;4.50;4.50;;;;;;;;5052006;28;9507;-71
2024/03/25 12:50:10;;;;;;;;;6.00;5.50;;;;;;;;5052298;28;9835;-70
2024/03/25 12:52:36;;;;;;;;;5.75;5.50;;;;;;;;5051814;28;8902;-73
2024/03/25 12:55:01;;;;;;;;;5.50;5.00;;;;;;;;5050813;28;8824;-72
2024/03/25 12:57:26;;;;;;;;;4.75;4.75;;;;;;;;5051995;28;9607;-74
2024/03/25 12:59:52;;;;;;;;;4.25;4.25;;;;;;;;5051311;28;8789;-70
2024/03/25 13:02:19;;;;;;;;;5.00;5.00;;;;;;;;5051736;28;8907;-70
2024/03/25 13:04:44;;;;;;;;;8.25;6.25;;;;;;;;5051922;28;8835;-68
2024/03/25 13:07:10;;;;;;;;;5.25;4.75;;;;;;;;5051882;28;9704;-69
2024/03/25 13:09:35;;;;;;;;;8.25;5.75;;;;;;;;5051988;28;8793;-70
2024/03/25 13:12:01;;;;;;;;;4.25;4.25;;;;;;;;5044249;28;9722;-68
2024/03/25 13:14:26;;;;;;;;;4.50;4.50;;;;;;;;5031103;28;8810;-68
2024/03/25 13:16:51;;;;;;;;;5.00;2.00;;;;;;;;5031187;28;8811;-68
2024/03/25 13:19:17;;;;;;;;;4.00;4.00;;;;;;;;5031719;28;8816;-68
2024/03/25 13:21:43;;;;;;;;;4.00;4.00;;;;;;;;5029683;28;8847;-69
2024/03/25 13:24:08;;;;;;;;;4.00;4.00;;;;;;;;5031062;28;8847;-69
2024/03/25 13:26:33;;;;;;;;;2.00;2.00;;;;;;;;5043520;28;9579;-68
2024/03/25 13:28:59;;;;;;;;;4.00;4.00;;;;;;;;5051550;28;8866;-68
2024/03/25 13:31:25;;;;;;;;;5.25;4.00;;;;;;;;5051422;28;8812;-70
2024/03/25 13:33:51;;;;;;;;;3.75;3.75;;;;;;;;5050926;28;12291;-69
2024/03/25 13:36:16;;;;;;;;;4.50;4.50;;;;;;;;5051416;28;8891;-72
2024/03/25 13:38:42;;;;;;;;;5.00;5.00;;;;;;;;5051394;28;10054;-70
2024/03/25 13:41:07;;;;;;;;;4.50;4.00;;;;;;;;5051742;28;8801;-71
2024/03/25 13:43:33;;;;;;;;;5.00;4.25;;;;;;;;5051083;28;8829;-71
2024/03/25 13:45:58;;;;;;;;;6.00;5.00;;;;;;;;5051305;28;9490;-70
2024/03/25 13:48:23;;;;;;;;;4.75;4.75;;;;;;;;5049745;28;8817;-70
2024/03/25 13:50:49;;;;;;;;;4.25;3.50;;;;;;;;5051235;28;8855;-71
2024/03/25 13:53:14;;;;;;;;;8.00;6.00;;;;;;;;5050883;28;8925;-71
2024/03/25 13:55:40;;;;;;;;;6.75;5.25;;;;;;;;5050824;28;8773;-71
2024/03/25 13:58:05;;;;;;;;;4.25;4.25;;;;;;;;5051043;28;8899;-72
2024/03/25 14:00:31;;;;;;;;;5.25;5.25;;;;;;;;5051127;28;8890;-71
2024/03/25 14:02:57;;;;;;;;;6.00;4.75;;;;;;;;5050472;28;8825;-71
2024/03/25 14:05:23;;;;;;;;;6.25;5.00;;;;;;;;5050646;28;10183;-71
2024/03/25 14:07:49;;;;;;;;;6.00;5.00;;;;;;;;5050692;28;9779;-71
2024/03/25 14:10:14;;;;;;;;;3.00;3.00;;;;;;;;5051255;28;8812;-69
2024/03/25 14:12:40;;;;;;;;;6.50;5.75;;;;;;;;5049918;28;10122;-75
2024/03/25 14:15:06;;;;;;;;;5.00;5.00;;;;;;;;5050772;28;8906;-69
2024/03/25 14:17:31;;;;;;;;;5.25;5.00;;;;;;;;5050760;28;8797;-69
2024/03/25 14:19:57;;;;;;;;;1.25;1.25;;;;;;;;5050361;28;9767;-70
2024/03/25 14:22:22;;;;;;;;;1.25;1.25;;;;;;;;5050569;28;8832;-71
2024/03/25 14:24:48;;;;;;;;;4.00;3.00;;;;;;;;5050452;28;8812;-70
2024/03/25 14:27:13;;;;;;;;;5.00;1.00;;;;;;;;5050697;28;8902;-71
2024/03/25 14:29:38;;;;;;;;;2.50;2.25;;;;;;;;5050575;28;8793;-72
2024/03/25 14:32:04;;;;;;;;;3.75;3.75;;;;;;;;5050371;28;8805;-69
2024/03/25 14:34:29;;;;;;;;;3.00;1.75;;;;;;;;5044704;28;8800;-70
2024/03/25 14:36:56;;;;;;;;;2.50;2.50;;;;;;;;5030165;28;8799;-70
2024/03/25 14:39:21;;;;;;;;;4.00;3.00;;;;;;;;5030427;28;8823;-72
2024/03/25 14:41:47;;;;;;;;;4.50;3.25;;;;;;;;5030181;28;10030;-71
2024/03/25 14:44:12;;;;;;;;;2.50;2.50;;;;;;;;5030214;28;8780;-71
2024/03/25 14:46:37;;;;;;;;;2.00;2.00;;;;;;;;5030220;28;8873;-70